createdAt,value
2022-10-01T00:01:22.674Z,100262.13
2022-10-01T00:03:50.420Z,100265.59
2022-10-01T00:06:20.368Z,100263.78
2022-10-01T00:08:50.238Z,100251.31
2022-10-01T00:11:20.801Z,100242.47
2022-10-01T00:13:49.477Z,100242.47
2022-10-01T00:16:19.514Z,100248.72
2022-10-01T00:18:49.600Z,100239.00
2022-10-01T00:21:20.424Z,100237.25
2022-10-01T00:23:48.858Z,100231.97
2022-10-01T00:26:18.570Z,100231.09
2022-10-01T00:28:47.990Z,100233.78
2022-10-01T00:31:16.897Z,100230.22
2022-10-01T00:33:44.700Z,100231.97
2022-10-01T00:36:13.979Z,100223.09
2022-10-01T00:38:42.283Z,100207.19
2022-10-01T00:41:10.423Z,100216.06
2022-10-01T00:43:43.515Z,100213.41
2022-10-01T00:46:18.665Z,100210.66
2022-10-01T00:48:53.563Z,100204.50
2022-10-01T00:51:22.841Z,100194.75
2022-10-01T00:53:50.673Z,100198.22
2022-10-01T00:56:19.073Z,100193.72
2022-10-01T00:58:47.023Z,100196.31
2022-10-01T01:01:14.809Z,100189.22
2022-10-01T01:03:42.575Z,100183.97
2022-10-01T01:06:10.724Z,100186.66
2022-10-01T01:08:39.870Z,100178.66
2022-10-01T01:11:17.136Z,100180.38
2022-10-01T01:13:54.956Z,100176.91
2022-10-01T01:16:29.165Z,100174.09
2022-10-01T01:19:03.261Z,100172.38
2022-10-01T01:21:33.808Z,100162.75
2022-10-01T01:24:22.921Z,100160.91
2022-10-01T01:27:06.162Z,100154.25
2022-10-01T01:29:40.776Z,100157.44
2022-10-01T01:32:14.930Z,100153.22
2022-10-01T01:34:48.194Z,100152.44
2022-10-01T01:37:20.320Z,100138.25
2022-10-01T01:39:51.897Z,100143.56
2022-10-01T01:42:24.669Z,100136.41
2022-10-01T01:44:58.242Z,100133.81
2022-10-01T01:47:34.460Z,100140.09
2022-10-01T01:50:03.790Z,100130.38
2022-10-01T01:52:31.609Z,100120.72
2022-10-01T01:54:59.630Z,100120.78
2022-10-01T01:57:27.367Z,100115.41
2022-10-01T01:59:56.521Z,100120.63
2022-10-01T02:02:27.870Z,100109.03
2022-10-01T02:04:59.351Z,100109.09
2022-10-01T02:07:47.397Z,100101.03
2022-10-01T02:10:26.108Z,100093.81
2022-10-01T02:13:06.769Z,100088.50
2022-10-01T02:15:48.090Z,100090.22
2022-10-01T02:18:26.064Z,100067.19
2022-10-01T02:21:01.596Z,100075.94
2022-10-01T02:23:33.404Z,100073.25
2022-10-01T02:26:12.645Z,100077.56
2022-10-01T02:28:43.555Z,100074.00
2022-10-01T02:31:15.604Z,100063.28
2022-10-01T02:33:45.017Z,100060.53
2022-10-01T02:36:15.310Z,100052.59
2022-10-01T02:38:46.715Z,100053.31
2022-10-01T02:41:17.776Z,100046.25
2022-10-01T02:43:51.367Z,100039.09
2022-10-01T02:46:28.335Z,100038.19
2022-10-01T02:48:57.824Z,100039.81
2022-10-01T02:51:36.401Z,100034.38
2022-10-01T02:54:10.266Z,100034.28
2022-10-01T02:56:56.872Z,100028.97
2022-10-01T02:59:24.679Z,100018.25
2022-10-01T03:01:53.869Z,100009.47
2022-10-01T03:04:21.701Z,100005.78
2022-10-01T03:06:49.458Z,100004.81
2022-10-01T03:09:17.198Z,100006.69
2022-10-01T03:11:44.969Z,100004.69
2022-10-01T03:14:12.807Z,99996.63
2022-10-01T03:16:40.700Z,99997.44
2022-10-01T03:19:09.774Z,99988.66
2022-10-01T03:21:37.522Z,99986.81
2022-10-01T03:24:05.254Z,99984.13
2022-10-01T03:26:33.014Z,99982.28
2022-10-01T03:29:00.781Z,99973.63
2022-10-01T03:31:28.669Z,99970.06
2022-10-01T03:34:00.303Z,99979.66
2022-10-01T03:36:29.463Z,99977.91
2022-10-01T03:38:57.430Z,99978.69
2022-10-01T03:41:25.281Z,99971.75
2022-10-01T03:43:56.015Z,99964.75
2022-10-01T03:46:26.773Z,99959.44
2022-10-01T03:48:56.278Z,99962.88
2022-10-01T03:51:24.183Z,99944.19
2022-10-01T03:53:53.406Z,99932.66
2022-10-01T03:56:21.419Z,99950.31
2022-10-01T03:58:49.262Z,99937.09
2022-10-01T04:01:17.119Z,99937.84
2022-10-01T04:03:45.021Z,99937.84
2022-10-01T04:06:13.321Z,99939.44
2022-10-01T04:08:41.221Z,99930.56
2022-10-01T04:11:10.361Z,99927.97
2022-10-01T04:13:38.506Z,99934.03
2022-10-01T04:16:07.811Z,99918.91
2022-10-01T04:18:36.312Z,99919.81
2022-10-01T04:21:04.266Z,99914.53
2022-10-01T04:23:32.098Z,99906.69
2022-10-01T04:26:02.336Z,99905.78
2022-10-01T04:28:32.051Z,99898.97
2022-10-01T04:31:14.015Z,99899.63
2022-10-01T04:33:42.228Z,99890.69
2022-10-01T04:36:10.242Z,99885.31
2022-10-01T04:38:38.105Z,99886.56
2022-10-01T04:41:06.146Z,99875.13
2022-10-01T04:43:35.288Z,99869.88
2022-10-01T04:46:03.145Z,99868.91
2022-10-01T04:48:31.024Z,99868.84
2022-10-01T04:50:58.900Z,99867.22
2022-10-01T04:53:26.834Z,99868.00
2022-10-01T04:55:54.584Z,99860.09
2022-10-01T04:58:22.523Z,99852.13
2022-10-01T05:00:51.988Z,99846.94
2022-10-01T05:03:19.830Z,99837.31
2022-10-01T05:05:47.755Z,99837.38
2022-10-01T05:08:15.696Z,99832.16
2022-10-01T05:10:44.318Z,99823.56
2022-10-01T05:13:12.164Z,99837.88
2022-10-01T05:15:40.279Z,99830.06
2022-10-01T05:18:09.735Z,99823.22
2022-10-01T05:20:38.391Z,99815.38
2022-10-01T05:23:06.212Z,99805.81
2022-10-01T05:25:34.030Z,99807.66
2022-10-01T05:28:05.210Z,99802.41
2022-10-01T05:30:34.159Z,99817.59
2022-10-01T05:33:03.414Z,99805.31
2022-10-01T05:35:32.822Z,99805.13
2022-10-01T05:38:02.661Z,99800.59
2022-10-01T05:40:31.559Z,99797.28
2022-10-01T05:43:00.621Z,99796.84
2022-10-01T05:45:29.253Z,99787.34
2022-10-01T05:47:58.674Z,99793.38
2022-10-01T05:50:26.937Z,99791.31
2022-10-01T05:52:56.033Z,99776.44
2022-10-01T05:55:24.903Z,99775.66
2022-10-01T05:57:59.910Z,99761.56
2022-10-01T06:00:29.277Z,99764.34
2022-10-01T06:02:57.820Z,99753.94
2022-10-01T06:05:26.836Z,99758.13
2022-10-01T06:07:56.432Z,99760.22
2022-10-01T06:10:25.193Z,99752.31
2022-10-01T06:12:53.175Z,99744.41
2022-10-01T06:15:20.966Z,99739.00
2022-10-01T06:17:48.671Z,99739.09
2022-10-01T06:20:19.371Z,99737.28
2022-10-01T06:22:56.444Z,99735.41
2022-10-01T06:25:24.613Z,99733.56
2022-10-01T06:27:55.353Z,99735.25
2022-10-01T06:30:23.710Z,99735.53
2022-10-01T06:32:51.542Z,99734.50
2022-10-01T06:35:20.752Z,99719.41
2022-10-01T06:37:48.533Z,99705.34
2022-10-01T06:40:17.761Z,99709.03
2022-10-01T06:42:48.778Z,99704.28
2022-10-01T06:45:17.881Z,99700.72
2022-10-01T06:47:45.697Z,99707.06
2022-10-01T06:50:13.635Z,99698.84
2022-10-01T06:52:50.212Z,99699.91
2022-10-01T06:55:20.645Z,99705.09
2022-10-01T06:57:50.271Z,99688.22
2022-10-01T07:00:18.189Z,99688.16
2022-10-01T07:02:45.978Z,99675.13
2022-10-01T07:05:13.835Z,99682.91
2022-10-01T07:07:41.681Z,99701.41
2022-10-01T07:10:11.505Z,99688.72
2022-10-01T07:12:40.682Z,99695.00
2022-10-01T07:15:10.162Z,99690.81
2022-10-01T07:17:45.102Z,99684.31
2022-10-01T07:20:14.717Z,99689.38
2022-10-01T07:22:42.504Z,99677.97
2022-10-01T07:25:10.515Z,99681.53
2022-10-01T07:27:40.607Z,99681.53
2022-10-01T07:30:09.566Z,99685.00
2022-10-01T07:32:37.623Z,99681.31
2022-10-01T07:35:06.894Z,99681.31
2022-10-01T07:37:34.785Z,99688.22
2022-10-01T07:40:06.688Z,99679.56
2022-10-01T07:42:35.425Z,99689.25
2022-10-01T07:45:06.549Z,99683.81
2022-10-01T07:47:34.541Z,99683.75
2022-10-01T07:50:02.290Z,99686.28
2022-10-01T07:52:30.246Z,99687.09
2022-10-01T07:54:58.098Z,99698.41
2022-10-01T07:57:26.060Z,99684.25
2022-10-01T07:59:56.070Z,99690.28
2022-10-01T08:02:25.416Z,99680.47
2022-10-01T08:05:11.122Z,99691.41
2022-10-01T08:07:39.059Z,99692.06
2022-10-01T08:10:07.418Z,99694.47
2022-10-01T08:12:35.206Z,99691.00
2022-10-01T08:15:03.293Z,99701.53
2022-10-01T08:17:32.482Z,99697.81
2022-10-01T08:20:00.346Z,99694.34
2022-10-01T08:22:28.203Z,99690.78
2022-10-01T08:24:56.002Z,99694.22
2022-10-01T08:27:25.074Z,99695.69
2022-10-01T08:29:53.461Z,99697.59
2022-10-01T08:32:22.080Z,99694.81
2022-10-01T08:34:56.523Z,99693.69
2022-10-01T08:37:28.230Z,99700.00
2022-10-01T08:39:56.475Z,99692.84
2022-10-01T08:42:39.493Z,99695.03
2022-10-01T08:45:14.219Z,99696.78
2022-10-01T08:47:44.971Z,99701.66
2022-10-01T08:50:26.163Z,99700.53
2022-10-01T08:52:59.327Z,99698.94
2022-10-01T08:55:36.077Z,99710.09
2022-10-01T08:58:05.813Z,99705.53
2022-10-01T09:00:36.470Z,99703.00
2022-10-01T09:03:07.352Z,99696.97
2022-10-01T09:05:48.602Z,99689.22
2022-10-01T09:08:43.473Z,99703.53
2022-10-01T09:11:21.987Z,99702.56
2022-10-01T09:14:08.021Z,99711.91
2022-10-01T09:16:41.213Z,99712.81
2022-10-01T09:19:24.081Z,99717.50
2022-10-01T09:21:57.867Z,99713.50
2022-10-01T09:24:40.559Z,99714.69
2022-10-01T09:27:14.816Z,99717.63
2022-10-01T09:29:47.009Z,99718.69
2022-10-01T09:32:20.205Z,99724.66
2022-10-01T09:34:48.506Z,99723.66
2022-10-01T09:37:27.007Z,99703.38
2022-10-01T09:40:06.180Z,99695.78
2022-10-01T09:42:33.999Z,99699.72
2022-10-01T09:45:02.757Z,99703.47
2022-10-01T09:47:34.519Z,99705.19
2022-10-01T09:50:05.779Z,99700.56
2022-10-01T09:52:39.180Z,99696.97
2022-10-01T09:55:20.871Z,99705.81
2022-10-01T09:57:54.657Z,99710.66
2022-10-01T10:00:24.481Z,99723.91
2022-10-01T10:02:54.233Z,99723.66
2022-10-01T10:05:24.174Z,99717.84
2022-10-01T10:07:56.407Z,99712.34
2022-10-01T10:10:28.338Z,99701.22
2022-10-01T10:12:58.690Z,99718.78
2022-10-01T10:15:27.337Z,99715.50
2022-10-01T10:17:55.801Z,99720.44
2022-10-01T10:20:31.124Z,99712.72
2022-10-01T10:23:15.192Z,99718.47
2022-10-01T10:25:43.305Z,99721.44
2022-10-01T10:28:21.200Z,99722.06
2022-10-01T10:30:49.954Z,99733.47
2022-10-01T10:33:20.820Z,99737.91
2022-10-01T10:35:58.984Z,99748.91
2022-10-01T10:38:32.327Z,99743.25
2022-10-01T10:41:00.626Z,99747.25
2022-10-01T10:43:34.593Z,99749.81
2022-10-01T10:46:03.638Z,99750.56
2022-10-01T10:48:36.353Z,99755.91
2022-10-01T10:51:06.178Z,99751.19
2022-10-01T10:53:44.875Z,99749.28
2022-10-01T10:56:22.885Z,99750.22
2022-10-01T10:58:51.656Z,99760.31
2022-10-01T11:01:29.980Z,99756.63
2022-10-01T11:04:00.760Z,99762.31
2022-10-01T11:06:30.304Z,99764.31
2022-10-01T11:09:04.772Z,99771.34
2022-10-01T11:11:47.059Z,99775.66
2022-10-01T11:14:34.058Z,99777.34
2022-10-01T11:17:19.997Z,99773.16
2022-10-01T11:20:10.700Z,99767.06
2022-10-01T11:22:52.437Z,99772.09
2022-10-01T11:25:31.660Z,99765.75
2022-10-01T11:28:14.813Z,99765.94
2022-10-01T11:30:53.579Z,99757.13
2022-10-01T11:33:34.404Z,99769.78
2022-10-01T11:36:07.947Z,99771.34
2022-10-01T11:38:46.444Z,99760.78
2022-10-01T11:41:26.854Z,99779.34
2022-10-01T11:43:57.583Z,99780.75
2022-10-01T11:46:41.111Z,99778.81
2022-10-01T11:49:26.719Z,99781.44
2022-10-01T11:52:04.888Z,99774.63
2022-10-01T11:54:37.694Z,99778.25
2022-10-01T11:57:32.602Z,99766.38
2022-10-01T12:00:07.121Z,99767.41
2022-10-01T12:02:50.271Z,99763.72
2022-10-01T12:05:22.000Z,99769.03
2022-10-01T12:07:55.165Z,99773.59
2022-10-01T12:10:37.455Z,99763.81
2022-10-01T12:13:15.812Z,99766.53
2022-10-01T12:15:49.298Z,99763.44
2022-10-01T12:18:23.172Z,99770.16
2022-10-01T12:20:54.536Z,99772.06
2022-10-01T12:23:25.803Z,99767.09
2022-10-01T12:26:00.947Z,99768.63
2022-10-01T12:28:37.684Z,99768.81
2022-10-01T12:31:12.477Z,99771.41
2022-10-01T12:34:04.828Z,99774.75
2022-10-01T12:36:44.298Z,99777.28
2022-10-01T12:39:35.205Z,99781.22
2022-10-01T12:42:17.945Z,99784.38
2022-10-01T12:45:04.404Z,99786.00
2022-10-01T12:47:40.267Z,99783.03
2022-10-01T12:50:22.162Z,99789.53
2022-10-01T12:53:05.234Z,99777.47
2022-10-01T12:55:48.369Z,99777.28
2022-10-01T12:58:31.258Z,99782.00
2022-10-01T13:01:11.564Z,99781.78
2022-10-01T13:04:17.645Z,99783.91
2022-10-01T13:07:00.659Z,99782.53
2022-10-01T13:09:39.627Z,99780.63
2022-10-01T13:12:23.238Z,99778.63
2022-10-01T13:14:53.357Z,99780.47
2022-10-01T13:17:34.506Z,99771.97
2022-10-01T13:20:07.228Z,99779.69
2022-10-01T13:22:43.076Z,99790.03
2022-10-01T13:25:24.809Z,99785.78
2022-10-01T13:27:59.495Z,99784.06
2022-10-01T13:30:31.214Z,99790.00
2022-10-01T13:33:01.774Z,99785.72
2022-10-01T13:35:35.462Z,99788.84
2022-10-01T13:38:15.155Z,99786.94
2022-10-01T13:40:43.427Z,99791.84
2022-10-01T13:43:19.082Z,99792.22
2022-10-01T13:45:49.566Z,99797.06
2022-10-01T13:48:23.521Z,99794.69
2022-10-01T13:50:58.876Z,99804.09
2022-10-01T13:53:29.685Z,99803.59
2022-10-01T13:55:58.808Z,99808.56
2022-10-01T13:58:39.769Z,99798.03
2022-10-01T14:01:27.136Z,99789.28
2022-10-01T14:04:05.609Z,99790.03
2022-10-01T14:06:42.665Z,99787.13
2022-10-01T14:09:16.168Z,99899.59
2022-10-01T14:12:04.360Z,99899.84
2022-10-01T14:14:51.987Z,99913.28
2022-10-01T14:17:22.664Z,99912.69
2022-10-01T14:19:52.223Z,99918.72
2022-10-01T14:22:44.200Z,99922.25
2022-10-01T14:25:23.624Z,99920.63
2022-10-01T14:28:07.010Z,99922.22
2022-10-01T14:30:43.951Z,99925.53
2022-10-01T14:33:36.380Z,99941.75
2022-10-01T14:36:11.410Z,99947.88
2022-10-01T14:38:39.379Z,99958.44
2022-10-01T14:41:07.392Z,99957.09
2022-10-01T14:43:40.662Z,99959.91
2022-10-01T14:46:15.746Z,99962.22
2022-10-01T14:48:44.017Z,99958.75
2022-10-01T14:51:26.373Z,99964.97
2022-10-01T14:53:56.350Z,99954.19
2022-10-01T14:56:24.820Z,99955.03
2022-10-01T14:59:01.834Z,99953.84
2022-10-01T15:01:30.084Z,99957.75
2022-10-01T15:03:58.313Z,99958.91
2022-10-01T15:06:29.969Z,99951.75
2022-10-01T15:09:12.860Z,99963.44
2022-10-01T15:11:44.690Z,99954.38
2022-10-01T15:14:18.806Z,99949.84
2022-10-01T15:16:47.169Z,99945.88
2022-10-01T15:19:18.053Z,99947.63
2022-10-01T15:21:51.158Z,99958.41
2022-10-01T15:24:27.066Z,99957.41
2022-10-01T15:26:58.170Z,99950.44
2022-10-01T15:29:26.090Z,99963.06
2022-10-01T15:31:54.823Z,99966.63
2022-10-01T15:34:25.272Z,99969.78
2022-10-01T15:36:55.650Z,99975.22
2022-10-01T15:39:29.887Z,99986.88
2022-10-01T15:41:58.350Z,99976.97
2022-10-01T15:44:47.190Z,99982.28
2022-10-01T15:47:29.316Z,99995.44
2022-10-01T15:50:18.134Z,99994.28
2022-10-01T15:53:01.880Z,100001.72
2022-10-01T15:55:36.411Z,100015.38
2022-10-01T15:58:15.019Z,100012.78
2022-10-01T16:00:57.759Z,100014.38
2022-10-01T16:03:30.010Z,100027.91
2022-10-01T16:06:01.361Z,100020.88
2022-10-01T16:08:35.276Z,100033.38
2022-10-01T16:11:20.780Z,100038.63
2022-10-01T16:13:50.545Z,100046.69
2022-10-01T16:16:27.256Z,100049.63
2022-10-01T16:18:59.015Z,100052.47
2022-10-01T16:21:27.684Z,100064.72
2022-10-01T16:23:57.187Z,100066.59
2022-10-01T16:26:40.821Z,100073.97
2022-10-01T16:29:22.692Z,100079.59
2022-10-01T16:31:51.673Z,100087.66
2022-10-01T16:34:21.804Z,100085.91
2022-10-01T16:36:50.318Z,100083.66
2022-10-01T16:39:19.566Z,100087.94
2022-10-01T16:42:06.290Z,100089.63
2022-10-01T16:44:40.789Z,100095.63
2022-10-01T16:47:11.289Z,100108.81
2022-10-01T16:49:39.050Z,100119.97
2022-10-01T16:52:06.801Z,100126.38
2022-10-01T16:55:04.532Z,100132.56
2022-10-01T16:57:32.493Z,100144.06
2022-10-01T17:00:00.332Z,100155.56
2022-10-01T17:02:28.132Z,100151.13
2022-10-01T17:04:55.933Z,100153.25
2022-10-01T17:07:23.698Z,100158.56
2022-10-01T17:09:51.480Z,100153.19
2022-10-01T17:12:20.678Z,100158.56
2022-10-01T17:14:48.426Z,100165.44
2022-10-01T17:17:16.174Z,100172.56
2022-10-01T17:19:44.009Z,100171.59
2022-10-01T17:22:12.082Z,100170.94
2022-10-01T17:24:40.054Z,100179.97
2022-10-01T17:27:07.805Z,100180.34
2022-10-01T17:29:39.114Z,100190.16
2022-10-01T17:32:06.948Z,100190.50
2022-10-01T17:34:35.698Z,100194.81
2022-10-01T17:37:03.392Z,100201.22
2022-10-01T17:39:32.778Z,100205.50
2022-10-01T17:42:00.575Z,100214.28
2022-10-01T17:44:28.448Z,100215.09
2022-10-01T17:46:57.634Z,100217.94
2022-10-01T17:49:25.590Z,100219.75
2022-10-01T17:51:53.428Z,100228.94
2022-10-01T17:54:21.741Z,100225.41
2022-10-01T17:56:52.242Z,100238.06
2022-10-01T17:59:20.028Z,100235.59
2022-10-01T18:01:48.114Z,100236.47
2022-10-01T18:04:17.717Z,100248.00
2022-10-01T18:06:47.116Z,100261.56
2022-10-01T18:09:14.877Z,100266.75
2022-10-01T18:11:42.744Z,100264.91
2022-10-01T18:14:10.516Z,100266.63
2022-10-01T18:16:39.527Z,100280.88
2022-10-01T18:21:58.851Z,100292.88
2022-10-01T18:24:26.988Z,100303.38
2022-10-01T18:26:55.009Z,100305.06
2022-10-01T18:29:25.097Z,100303.97
2022-10-01T18:31:56.062Z,100306.53
2022-10-01T18:34:29.588Z,100319.34
2022-10-01T18:37:03.913Z,100314.91
2022-10-01T18:39:37.747Z,100319.81
2022-10-01T18:42:17.340Z,100330.72
2022-10-01T18:44:45.153Z,100335.56
2022-10-01T18:47:22.786Z,100329.59
2022-10-01T18:50:29.299Z,100347.31
2022-10-01T18:53:15.123Z,100347.50
2022-10-01T18:56:04.267Z,100351.31
2022-10-01T18:58:58.034Z,100363.69
2022-10-01T19:01:35.740Z,100364.06
2022-10-01T19:04:24.562Z,100377.41
2022-10-01T19:07:09.561Z,100372.22
2022-10-01T19:09:46.979Z,100376.69
2022-10-01T19:12:37.288Z,100379.47
2022-10-01T19:15:17.024Z,100388.47
2022-10-01T19:18:02.662Z,100394.75
2022-10-01T19:20:50.854Z,100400.09
2022-10-01T19:23:36.760Z,100398.38
2022-10-01T19:26:12.167Z,100401.22
2022-10-01T19:28:51.462Z,100417.38
2022-10-01T19:31:29.820Z,100414.72
2022-10-01T19:34:05.183Z,100410.41
2022-10-01T19:36:38.340Z,100420.25
2022-10-01T19:39:13.477Z,100422.00
2022-10-01T19:41:49.131Z,100431.75
2022-10-01T19:44:21.929Z,100427.44
2022-10-01T19:46:52.423Z,100430.25
2022-10-01T19:49:27.448Z,100431.03
2022-10-01T19:51:58.509Z,100431.22
2022-10-01T19:54:32.026Z,100433.06
2022-10-01T19:57:05.527Z,100436.53
2022-10-01T19:59:34.030Z,100433.81
2022-10-01T20:02:08.614Z,100443.56
2022-10-01T20:04:39.178Z,100446.22
2022-10-01T20:07:12.342Z,100447.13
2022-10-01T20:09:46.338Z,100463.34
2022-10-01T20:12:25.576Z,100461.41
2022-10-01T20:15:11.832Z,100464.91
2022-10-01T20:18:05.584Z,100470.22
2022-10-01T20:20:41.249Z,100472.03
2022-10-01T20:23:25.955Z,100482.66
2022-10-01T20:26:04.906Z,100483.50
2022-10-01T20:28:40.992Z,100491.53
2022-10-01T20:31:16.112Z,100495.94
2022-10-01T20:34:07.134Z,100491.56
2022-10-01T20:36:38.518Z,100500.44
2022-10-01T20:39:17.059Z,100504.94
2022-10-01T20:41:47.920Z,100515.41
2022-10-01T20:44:22.754Z,100510.03
2022-10-01T20:46:54.599Z,100514.41
2022-10-01T20:49:29.621Z,100514.59
2022-10-01T20:52:05.336Z,100525.22
2022-10-01T20:54:37.541Z,100536.66
2022-10-01T20:57:11.003Z,100537.50
2022-10-01T20:59:42.634Z,100533.94
2022-10-01T21:02:33.714Z,100539.25
2022-10-01T21:05:04.108Z,100536.66
2022-10-01T21:07:38.649Z,100542.81
2022-10-01T21:10:17.052Z,100552.72
2022-10-01T21:12:52.520Z,100552.56
2022-10-01T21:15:24.877Z,100557.13
2022-10-01T21:18:00.859Z,100562.47
2022-10-01T21:20:45.124Z,100569.69
2022-10-01T21:23:26.564Z,100569.50
2022-10-01T21:26:06.094Z,100569.59
2022-10-01T21:28:50.178Z,100571.44
2022-10-01T21:31:31.943Z,100574.09
2022-10-01T21:34:03.597Z,100574.09
2022-10-01T21:36:38.351Z,100573.34
2022-10-01T21:39:12.331Z,100577.75
2022-10-01T21:41:53.680Z,100582.22
2022-10-01T21:44:59.538Z,100588.50
2022-10-01T21:47:57.644Z,100595.63
2022-10-01T21:50:43.279Z,100594.78
2022-10-01T21:53:35.385Z,100591.22
2022-10-01T21:56:16.461Z,100600.09
2022-10-01T21:58:57.239Z,100595.72
2022-10-01T22:01:33.810Z,100593.06
2022-10-01T22:04:14.454Z,100597.47
2022-10-01T22:06:49.923Z,100599.19
2022-10-01T22:09:24.173Z,100602.69
2022-10-01T22:11:55.411Z,100599.97
2022-10-01T22:14:25.333Z,100601.78
2022-10-01T22:16:57.382Z,100610.75
2022-10-01T22:19:30.668Z,100619.56
2022-10-01T22:22:04.278Z,100626.56
2022-10-01T22:24:38.232Z,100619.47
2022-10-01T22:27:10.646Z,100621.13
2022-10-01T22:29:42.247Z,100622.03
2022-10-01T22:32:15.249Z,100622.94
2022-10-01T22:34:50.201Z,100626.53
2022-10-01T22:37:22.789Z,100624.75
2022-10-01T22:39:58.327Z,100627.47
2022-10-01T22:42:31.499Z,100625.81
2022-10-01T22:45:03.816Z,100628.31
2022-10-01T22:47:53.996Z,100634.50
2022-10-01T22:50:37.688Z,100633.72
2022-10-01T22:53:20.345Z,100639.03
2022-10-01T22:55:53.799Z,100641.69
2022-10-01T22:58:32.876Z,100644.25
2022-10-01T23:01:13.113Z,100644.25
2022-10-01T23:03:51.472Z,100645.19
2022-10-01T23:06:29.251Z,100649.63
2022-10-01T23:09:08.579Z,100654.09
2022-10-01T23:11:53.048Z,100651.50
2022-10-01T23:14:39.525Z,100650.69
2022-10-01T23:17:13.556Z,100650.78
2022-10-01T23:19:53.735Z,100651.03
2022-10-01T23:22:39.786Z,100647.69
2022-10-01T23:25:19.260Z,100655.56
2022-10-01T23:28:02.913Z,100653.81
2022-10-01T23:30:39.099Z,100654.00
2022-10-01T23:33:21.025Z,100655.72
2022-10-01T23:35:59.707Z,100654.94
2022-10-01T23:38:52.258Z,100657.56
2022-10-01T23:41:26.424Z,100659.19
2022-10-01T23:43:59.598Z,100664.22
2022-10-01T23:46:31.766Z,100659.53
2022-10-01T23:49:05.776Z,100658.50
2022-10-01T23:51:39.190Z,100668.78
2022-10-01T23:54:15.453Z,100671.44
2022-10-01T23:56:49.946Z,100682.66
2022-10-01T23:59:25.065Z,100694.94
